KSEA/SEA METAR and TAF weather

Enter ICAO airport designator
Station Type Date Time Source
KSEA METAR 2020/01/20 09:53 UTC NOAA

KSEA 200953Z 15008KT 10SM BKN120 OVC150 10/01 A2994 RMK AO2 SLP146 T01000006


Station Type Date Time Source
KSEA Decoded METAR 2020/01/20 09:53 UTC NOAA

SEATTLE-TACOMA INTERNATIONAL AIRPORT , WA, United States (KSEA) 47-27N 122-19W 136M
Jan 20, 2020 - 04:53 AM EST / 2020.01.20 0953 UTC
Wind: from the SSE (150 degrees) at 9 MPH (8 KT):0
Visibility: 10 mile(s):0
Sky conditions: overcast
Temperature: 50.0 F (10.0 C)
Dew Point: 33.1 F (0.6 C)
Relative Humidity: 51%
Pressure (altimeter): 29.94 in. Hg (1013 hPa)
ob: KSEA 200953Z 15008KT 10SM BKN120 OVC150 10/01 A2994 RMK AO2 SLP146 T01000006
cycle: 10

Station Type Date Time Source
KSEA TAF 2020/01/20 09:03 UTC NOAA

TAF
AMD KSEA 200900Z 2009/2112 12012KT P6SM BKN150
FM201600 12008KT P6SM SCT035 BKN070 OVC100
FM202200 09005KT P6SM SCT030 OVC060
FM210200 12009KT P6SM SCT030 OVC050

Example: see airport list